createdAt,value
2023-03-21T00:01:53.578Z,97870.50
2023-03-21T00:04:22.710Z,97867.84
2023-03-21T00:06:50.769Z,97864.63
2023-03-21T00:09:18.463Z,97862.34
2023-03-21T00:11:46.598Z,97859.31
2023-03-21T00:14:18.777Z,97853.19
2023-03-21T00:16:50.829Z,97852.34
2023-03-21T00:19:21.081Z,97853.53
2023-03-21T00:22:06.361Z,97857.22
2023-03-21T00:24:36.613Z,97852.06
2023-03-21T00:27:29.777Z,97853.47
2023-03-21T00:29:52.227Z,97865.13
2023-03-21T00:32:21.497Z,97854.56
2023-03-21T00:35:43.699Z,97858.41
2023-03-21T00:37:37.748Z,97865.78
2023-03-21T00:40:16.372Z,97858.41
2023-03-21T00:42:51.225Z,97863.50
2023-03-21T00:45:19.479Z,97865.19
2023-03-21T00:47:47.104Z,97857.66
2023-03-21T00:50:14.650Z,97856.00
2023-03-21T00:52:42.389Z,97859.09
2023-03-21T00:55:18.234Z,97851.09
2023-03-21T00:57:56.303Z,97855.19
2023-03-21T01:00:27.858Z,97849.69
2023-03-21T01:03:14.182Z,97846.84
2023-03-21T01:06:02.349Z,97846.88
2023-03-21T01:08:44.574Z,97840.34
2023-03-21T01:11:21.654Z,97838.09
2023-03-21T01:14:07.134Z,97842.38
2023-03-21T01:16:37.521Z,97835.44
2023-03-21T01:19:14.879Z,97845.88
2023-03-21T01:21:43.897Z,97838.13
2023-03-21T01:24:11.454Z,97845.66
2023-03-21T01:26:38.929Z,97846.50
2023-03-21T01:29:06.940Z,97837.91
2023-03-21T01:31:34.533Z,97842.47
2023-03-21T01:34:02.292Z,97848.59
2023-03-21T01:36:30.254Z,97839.38
2023-03-21T01:39:04.118Z,97847.34
2023-03-21T01:41:45.433Z,97836.97
2023-03-21T01:44:31.000Z,97839.63
2023-03-21T01:47:10.434Z,97849.44
2023-03-21T01:49:51.418Z,97841.28
2023-03-21T01:52:39.527Z,97842.94
2023-03-21T01:55:18.757Z,97851.09
2023-03-21T01:58:09.447Z,97839.69
2023-03-21T02:01:01.018Z,97845.59
2023-03-21T02:03:50.164Z,97842.94
2023-03-21T02:07:09.616Z,97835.94
2023-03-21T02:09:49.082Z,97841.25
2023-03-21T02:12:20.578Z,97840.88
2023-03-21T02:14:50.058Z,97835.38
2023-03-21T02:17:56.889Z,97834.59
2023-03-21T02:20:54.457Z,97830.75
2023-03-21T02:23:37.225Z,97834.69
2023-03-21T02:26:10.690Z,97836.16
2023-03-21T02:28:42.326Z,97833.31
2023-03-21T02:31:42.123Z,97832.53
2023-03-21T02:34:26.390Z,97830.09
2023-03-21T02:37:23.492Z,97837.28
2023-03-21T02:40:22.889Z,97833.00
2023-03-21T02:43:22.624Z,97829.75
2023-03-21T02:46:08.618Z,97833.44
2023-03-21T02:48:50.267Z,97829.34
2023-03-21T02:51:23.438Z,97837.72
2023-03-21T02:54:25.011Z,97836.09
2023-03-21T02:56:51.473Z,97832.00
2023-03-21T02:59:21.381Z,97829.75
2023-03-21T03:01:52.807Z,97832.63
2023-03-21T03:04:23.194Z,97828.94
2023-03-21T03:07:10.773Z,97832.03
2023-03-21T03:09:38.709Z,97834.69
2023-03-21T03:12:27.894Z,97840.00
2023-03-21T03:15:03.426Z,97838.16
2023-03-21T03:17:40.082Z,97840.81
2023-03-21T03:20:39.474Z,97830.41
2023-03-21T03:23:13.673Z,97838.34
2023-03-21T03:26:10.622Z,97827.56
2023-03-21T03:28:47.965Z,97830.81
2023-03-21T03:31:27.295Z,97827.59
2023-03-21T03:34:04.380Z,97827.59
2023-03-21T03:36:40.347Z,97829.63
2023-03-21T03:39:14.671Z,97828.59
2023-03-21T03:42:10.254Z,97835.31
2023-03-21T03:44:47.180Z,97838.19
2023-03-21T03:47:35.058Z,97835.94
2023-03-21T03:50:33.885Z,97835.72
2023-03-21T03:53:17.664Z,97839.00
2023-03-21T03:55:47.462Z,97838.19
2023-03-21T03:58:24.041Z,97836.34
2023-03-21T04:00:55.419Z,97843.06
2023-03-21T04:03:24.182Z,97841.00
2023-03-21T04:05:54.175Z,97846.13
2023-03-21T04:08:23.453Z,97847.56
2023-03-21T04:10:54.706Z,97851.03
2023-03-21T04:13:23.524Z,97850.59
2023-03-21T04:16:03.797Z,97843.50
2023-03-21T04:18:33.054Z,97847.13
2023-03-21T04:21:00.590Z,97846.34
2023-03-21T04:23:30.606Z,97847.38
2023-03-21T04:25:58.114Z,97841.03
2023-03-21T04:28:37.398Z,97843.88
2023-03-21T04:31:28.690Z,97839.59
2023-03-21T04:34:10.143Z,97841.63
2023-03-21T04:36:46.853Z,97841.25
2023-03-21T04:39:15.621Z,97838.38
2023-03-21T04:41:46.841Z,97832.06
2023-03-21T04:44:16.643Z,97823.50
2023-03-21T04:46:45.148Z,97823.31
2023-03-21T04:49:13.523Z,97834.31
2023-03-21T04:51:45.319Z,97833.88
2023-03-21T04:54:17.556Z,97832.66
2023-03-21T04:56:45.016Z,97826.97
2023-03-21T04:59:15.741Z,97828.81
2023-03-21T05:01:44.027Z,97831.84
2023-03-21T05:04:14.480Z,97833.06
2023-03-21T05:06:43.351Z,97830.81
2023-03-21T05:09:11.794Z,97839.00
2023-03-21T05:11:41.168Z,97827.78
2023-03-21T05:14:12.166Z,97834.91
2023-03-21T05:16:45.245Z,97836.75
2023-03-21T05:19:14.094Z,97835.53
2023-03-21T05:21:43.585Z,97844.06
2023-03-21T05:24:20.201Z,97841.84
2023-03-21T05:26:52.602Z,97838.78
2023-03-21T05:29:23.771Z,97840.81
2023-03-21T05:32:17.491Z,97841.44
2023-03-21T05:34:45.708Z,97842.88
2023-03-21T05:37:13.248Z,97848.97
2023-03-21T05:39:47.818Z,97850.19
2023-03-21T05:42:23.428Z,97852.84
2023-03-21T05:44:51.186Z,97851.63
2023-03-21T05:47:23.533Z,97847.53
2023-03-21T05:49:53.679Z,97847.75
2023-03-21T05:52:22.359Z,97848.16
2023-03-21T05:54:50.144Z,97845.31
2023-03-21T05:57:21.654Z,97839.38
2023-03-21T06:00:10.799Z,97843.66
2023-03-21T06:02:44.629Z,97842.84
2023-03-21T06:05:38.700Z,97845.25
2023-03-21T06:08:11.956Z,97843.81
2023-03-21T06:10:40.653Z,97835.88
2023-03-21T06:13:08.842Z,97843.00
2023-03-21T06:15:37.470Z,97854.63
2023-03-21T06:18:11.636Z,97845.25
2023-03-21T06:21:29.141Z,97845.44
2023-03-21T06:23:56.757Z,97846.44
2023-03-21T06:26:24.260Z,97845.22
2023-03-21T06:28:54.369Z,97850.50
2023-03-21T06:31:26.669Z,97855.00
2023-03-21T06:34:00.912Z,97854.19
2023-03-21T06:36:28.557Z,97861.31
2023-03-21T06:38:56.089Z,97859.69
2023-03-21T06:41:24.287Z,97856.38
2023-03-21T06:43:59.549Z,97856.13
2023-03-21T06:46:28.340Z,97859.94
2023-03-21T06:48:56.169Z,97856.00
2023-03-21T06:51:23.953Z,97869.84
2023-03-21T06:54:02.779Z,97865.53
2023-03-21T06:56:42.005Z,97867.72
2023-03-21T06:59:12.721Z,97869.56
2023-03-21T07:02:07.060Z,97866.63
2023-03-21T07:04:40.329Z,97876.63
2023-03-21T07:07:12.857Z,97874.44
2023-03-21T07:09:41.372Z,97876.09
2023-03-21T07:12:09.146Z,97870.84
2023-03-21T07:15:04.517Z,97871.47
2023-03-21T07:17:33.443Z,97863.91
2023-03-21T07:20:01.406Z,97869.63
2023-03-21T07:22:29.508Z,97869.22
2023-03-21T07:25:04.727Z,97882.72
2023-03-21T07:27:40.758Z,97877.97
2023-03-21T07:30:10.309Z,97879.53
2023-03-21T07:32:40.560Z,97871.00
2023-03-21T07:35:12.073Z,97884.22
2023-03-21T07:37:41.076Z,97875.41
2023-03-21T07:40:10.317Z,97884.22
2023-03-21T07:42:40.421Z,97884.00
2023-03-21T07:45:09.967Z,97884.47
2023-03-21T07:47:37.531Z,97874.16
2023-03-21T07:50:05.352Z,97878.97
2023-03-21T07:52:33.030Z,97881.06
2023-03-21T07:55:00.610Z,97877.06
2023-03-21T07:57:28.108Z,97874.63
2023-03-21T07:59:55.674Z,97883.72
2023-03-21T08:02:23.353Z,97880.00
2023-03-21T08:04:51.277Z,97878.59
2023-03-21T08:07:19.088Z,97874.91
2023-03-21T08:09:46.541Z,97870.94
2023-03-21T08:12:13.988Z,97874.88
2023-03-21T08:14:41.548Z,97881.44
2023-03-21T08:17:09.627Z,97875.47
2023-03-21T08:19:37.706Z,97876.75
2023-03-21T08:22:06.828Z,97875.16
2023-03-21T08:24:34.398Z,97877.59
2023-03-21T08:27:02.279Z,97877.75
2023-03-21T08:29:29.769Z,97883.38
2023-03-21T08:31:58.271Z,97877.44
2023-03-21T08:34:26.843Z,97871.94
2023-03-21T08:36:54.691Z,97876.88
2023-03-21T08:39:22.683Z,97871.59
2023-03-21T08:41:50.481Z,97875.53
2023-03-21T08:44:17.961Z,97870.59
2023-03-21T08:46:45.485Z,97863.16
2023-03-21T08:49:12.989Z,97859.69
2023-03-21T08:51:41.348Z,97856.28
2023-03-21T08:54:16.878Z,97855.63
2023-03-21T08:56:44.428Z,97847.59
2023-03-21T08:59:11.848Z,97849.34
2023-03-21T09:01:39.567Z,97848.78
2023-03-21T09:04:10.998Z,97849.34
2023-03-21T09:06:45.750Z,97845.19
2023-03-21T09:09:13.810Z,97844.66
2023-03-21T09:11:41.484Z,97853.06
2023-03-21T09:14:09.637Z,97852.09
2023-03-21T09:16:37.122Z,97847.59
2023-03-21T09:19:04.647Z,97859.63
2023-03-21T09:21:32.111Z,97856.31
2023-03-21T09:24:00.787Z,97850.09
2023-03-21T09:26:28.843Z,97855.06
2023-03-21T09:28:56.695Z,97852.78
2023-03-21T09:31:24.995Z,97845.97
2023-03-21T09:33:53.528Z,97843.19
2023-03-21T09:36:22.095Z,97843.75
2023-03-21T09:38:50.136Z,97840.06
2023-03-21T09:41:36.054Z,97836.50
2023-03-21T09:44:25.499Z,97842.00
2023-03-21T09:47:06.237Z,97840.00
2023-03-21T09:49:43.908Z,97836.88
2023-03-21T09:52:43.876Z,97830.19
2023-03-21T09:55:31.008Z,97834.03
2023-03-21T09:58:20.663Z,97826.66
2023-03-21T10:00:56.775Z,97828.66
2023-03-21T10:03:30.781Z,97828.03
2023-03-21T10:06:01.284Z,97826.53
2023-03-21T10:08:36.757Z,97826.16
2023-03-21T10:11:10.328Z,97828.13
2023-03-21T10:13:44.194Z,97828.72
2023-03-21T10:16:16.345Z,97831.56
2023-03-21T10:18:45.085Z,97830.25
2023-03-21T10:21:47.503Z,97825.63
2023-03-21T10:24:17.871Z,97826.59
2023-03-21T10:26:46.556Z,97820.28
2023-03-21T10:29:16.876Z,97818.28
2023-03-21T10:31:46.954Z,97808.16
2023-03-21T10:34:20.723Z,97808.78
2023-03-21T10:36:48.275Z,97807.69
2023-03-21T10:39:21.018Z,97799.31
2023-03-21T10:41:48.638Z,97803.53
2023-03-21T10:44:20.936Z,97803.34
2023-03-21T10:46:57.522Z,97797.25
2023-03-21T10:49:30.014Z,97795.91
2023-03-21T10:52:01.511Z,97798.91
2023-03-21T10:54:32.177Z,97801.13
2023-03-21T10:57:08.416Z,97800.59
2023-03-21T10:59:40.985Z,97801.34
2023-03-21T11:02:21.333Z,97791.66
2023-03-21T11:04:49.144Z,97793.84
2023-03-21T11:07:19.394Z,97800.28
2023-03-21T11:09:59.616Z,97793.47
2023-03-21T11:12:34.640Z,97787.06
2023-03-21T11:15:33.426Z,97786.53
2023-03-21T11:18:14.891Z,97790.63
2023-03-21T11:20:52.661Z,97776.50
2023-03-21T11:23:21.242Z,97780.56
2023-03-21T11:25:52.119Z,97779.94
2023-03-21T11:28:23.002Z,97772.16
2023-03-21T11:30:59.382Z,97763.84
2023-03-21T11:33:40.696Z,97770.84
2023-03-21T11:36:17.251Z,97763.53
2023-03-21T11:38:48.578Z,97766.72
2023-03-21T11:41:25.412Z,97768.16
2023-03-21T11:43:54.575Z,97768.22
2023-03-21T11:46:30.974Z,97767.16
2023-03-21T11:48:59.705Z,97752.44
2023-03-21T11:51:35.974Z,97761.47
2023-03-21T11:54:32.724Z,97758.88
2023-03-21T11:57:29.809Z,97747.56
2023-03-21T12:00:05.205Z,97751.88
2023-03-21T12:03:04.792Z,97734.00
2023-03-21T12:05:36.003Z,97739.38
2023-03-21T12:08:12.659Z,97737.03
2023-03-21T12:10:43.220Z,97735.00
2023-03-21T12:13:20.148Z,97737.03
2023-03-21T12:16:22.618Z,97725.66
2023-03-21T12:19:44.438Z,97721.25
2023-03-21T12:22:38.561Z,97717.44
2023-03-21T12:25:15.453Z,97716.91
2023-03-21T12:27:48.952Z,97716.03
2023-03-21T12:30:25.470Z,97711.69
2023-03-21T12:33:06.050Z,97713.88
2023-03-21T12:35:46.127Z,97709.94
2023-03-21T12:38:22.079Z,97714.25
2023-03-21T12:41:03.226Z,97710.72
2023-03-21T12:43:39.861Z,97711.28
2023-03-21T12:46:30.392Z,97705.00
2023-03-21T12:49:36.089Z,97703.47
2023-03-21T12:52:19.479Z,97697.09
2023-03-21T12:54:50.057Z,97693.31
2023-03-21T12:57:21.499Z,97690.75
2023-03-21T12:59:59.782Z,97684.75
2023-03-21T13:02:34.400Z,97687.41
2023-03-21T13:05:18.479Z,97685.72
2023-03-21T13:08:07.387Z,97677.84
2023-03-21T13:10:34.916Z,97679.22
2023-03-21T13:13:29.947Z,97676.03
2023-03-21T13:16:12.579Z,97667.69
2023-03-21T13:18:58.096Z,97669.16
2023-03-21T13:21:37.579Z,97672.19
2023-03-21T13:24:19.338Z,97659.28
2023-03-21T13:26:52.974Z,97659.06
2023-03-21T13:29:27.307Z,97656.06
2023-03-21T13:32:08.492Z,97667.06
2023-03-21T13:34:40.368Z,97655.75
2023-03-21T13:37:18.965Z,97652.41
2023-03-21T13:39:47.387Z,97654.63
2023-03-21T13:42:32.625Z,97645.19
2023-03-21T13:45:02.588Z,97652.78
2023-03-21T13:47:41.370Z,97647.06
2023-03-21T13:50:23.494Z,97645.81
2023-03-21T13:53:14.121Z,97642.69
2023-03-21T13:55:44.840Z,97648.31
2023-03-21T13:58:33.632Z,97647.31
2023-03-21T14:01:13.492Z,97634.25
2023-03-21T14:03:42.126Z,97632.59
2023-03-21T14:06:11.330Z,97632.88
2023-03-21T14:08:42.133Z,97635.91
2023-03-21T14:11:16.392Z,97632.59
2023-03-21T14:13:51.195Z,97633.53
2023-03-21T14:16:21.003Z,97633.09
2023-03-21T14:18:55.935Z,97636.44
2023-03-21T14:21:26.384Z,97627.38
2023-03-21T14:24:14.048Z,97618.41
2023-03-21T14:26:45.881Z,97613.47
2023-03-21T14:29:33.779Z,97609.22
2023-03-21T14:32:02.499Z,97612.63
2023-03-21T14:34:33.443Z,97603.78
2023-03-21T14:37:01.177Z,97607.47
2023-03-21T14:39:31.494Z,97602.06
2023-03-21T14:42:12.385Z,97596.16
2023-03-21T14:44:54.485Z,97596.50
2023-03-21T14:47:26.259Z,97591.72
2023-03-21T14:49:54.134Z,97590.56
2023-03-21T14:52:33.412Z,97583.81
2023-03-21T14:55:02.805Z,97576.91
2023-03-21T14:57:32.766Z,97581.78
2023-03-21T15:00:10.772Z,97567.25
2023-03-21T15:02:41.603Z,97572.63
2023-03-21T15:05:17.315Z,97569.38
2023-03-21T15:07:54.338Z,97564.19
2023-03-21T15:10:21.901Z,97563.28
2023-03-21T15:12:57.671Z,97564.03
2023-03-21T15:15:27.694Z,97572.31
2023-03-21T15:18:00.850Z,97571.28
2023-03-21T15:20:34.395Z,97561.59
2023-03-21T15:23:07.260Z,97556.28
2023-03-21T15:25:36.634Z,97561.25
2023-03-21T15:28:06.516Z,97564.50
2023-03-21T15:30:34.672Z,97556.25
2023-03-21T15:33:09.172Z,97549.84
2023-03-21T15:35:43.346Z,97557.34
2023-03-21T15:38:23.902Z,97545.56
2023-03-21T15:40:52.339Z,97542.41
2023-03-21T15:43:20.800Z,97546.53
2023-03-21T15:45:50.689Z,97547.34
2023-03-21T15:48:26.625Z,97537.66
2023-03-21T15:51:02.818Z,97541.91
2023-03-21T15:53:33.926Z,97538.19
2023-03-21T15:56:03.170Z,97542.97
2023-03-21T15:58:48.659Z,97539.75
2023-03-21T16:01:22.288Z,97538.69
2023-03-21T16:03:57.119Z,97532.81
2023-03-21T16:06:33.672Z,97530.31
2023-03-21T16:09:23.796Z,97530.28
2023-03-21T16:11:56.966Z,97537.47
2023-03-21T16:14:28.023Z,97530.78
2023-03-21T16:16:57.491Z,97528.69
2023-03-21T16:19:25.050Z,97525.16
2023-03-21T16:21:53.519Z,97521.72
2023-03-21T16:24:20.999Z,97528.59
2023-03-21T16:26:52.269Z,97534.16
2023-03-21T16:29:20.084Z,97545.38
2023-03-21T16:31:49.344Z,97538.38
2023-03-21T16:34:17.067Z,97539.50
2023-03-21T16:36:44.581Z,97536.28
2023-03-21T16:39:23.168Z,97538.16
2023-03-21T16:41:51.647Z,97538.38
2023-03-21T16:44:20.407Z,97535.38
2023-03-21T16:46:48.362Z,97545.78
2023-03-21T16:49:25.130Z,97543.28
2023-03-21T16:51:54.233Z,97548.81
2023-03-21T16:54:22.101Z,97551.47
2023-03-21T16:56:53.514Z,97553.28
2023-03-21T16:59:21.015Z,97546.44
2023-03-21T17:01:49.103Z,97545.78
2023-03-21T17:04:18.283Z,97546.78
2023-03-21T17:06:51.592Z,97543.28
2023-03-21T17:09:26.426Z,97537.84
2023-03-21T17:11:53.990Z,97539.34
2023-03-21T17:14:22.338Z,97539.56
2023-03-21T17:16:50.030Z,97541.66
2023-03-21T17:19:24.099Z,97535.50
2023-03-21T17:21:51.689Z,97542.41
2023-03-21T17:24:19.171Z,97538.28
2023-03-21T17:26:46.634Z,97537.56
2023-03-21T17:29:14.856Z,97540.16
2023-03-21T17:31:44.024Z,97539.91
2023-03-21T17:34:11.607Z,97530.84
2023-03-21T17:36:41.619Z,97531.66
2023-03-21T17:39:15.447Z,97532.94
2023-03-21T17:41:42.859Z,97533.25
2023-03-21T17:44:10.505Z,97535.13
2023-03-21T17:46:38.175Z,97537.81
2023-03-21T17:49:06.697Z,97525.22
2023-03-21T17:51:34.183Z,97534.91
2023-03-21T17:54:01.791Z,97529.47
2023-03-21T17:56:32.219Z,97526.78
2023-03-21T17:59:02.140Z,97526.50
2023-03-21T18:01:31.017Z,97527.78
2023-03-21T18:04:02.876Z,97517.28
2023-03-21T18:06:31.131Z,97524.66
2023-03-21T18:08:59.703Z,97519.56
2023-03-21T18:11:28.066Z,97527.22
2023-03-21T18:14:09.852Z,97529.63
2023-03-21T18:16:42.158Z,97537.09
2023-03-21T18:19:11.030Z,97528.69
2023-03-21T18:21:40.767Z,97536.44
2023-03-21T18:24:08.930Z,97526.50
2023-03-21T18:26:36.439Z,97522.78
2023-03-21T18:30:00.359Z,97527.00
2023-03-21T18:32:05.589Z,97523.84
2023-03-21T18:34:36.089Z,97521.88
2023-03-21T18:37:04.383Z,97525.88
2023-03-21T18:39:33.293Z,97527.41
2023-03-21T18:42:04.640Z,97535.44
2023-03-21T18:44:37.738Z,97527.66
2023-03-21T18:47:06.876Z,97525.69
2023-03-21T18:50:10.461Z,97519.53
2023-03-21T18:52:22.734Z,97524.66
2023-03-21T18:54:50.414Z,97524.97
2023-03-21T18:57:36.996Z,97521.50
2023-03-21T19:00:12.632Z,97519.97
2023-03-21T19:02:46.319Z,97524.50
2023-03-21T19:05:16.757Z,97529.28
2023-03-21T19:07:44.405Z,97533.97
2023-03-21T19:10:18.225Z,97530.81
2023-03-21T19:12:56.231Z,97532.75
2023-03-21T19:15:24.401Z,97532.53
2023-03-21T19:18:30.679Z,97521.56
2023-03-21T19:20:45.702Z,97533.91
2023-03-21T19:23:13.705Z,97526.38
2023-03-21T19:25:42.854Z,97533.00
2023-03-21T19:28:10.942Z,97529.75
2023-03-21T19:30:39.467Z,97525.59
2023-03-21T19:33:07.520Z,97531.53
2023-03-21T19:35:37.331Z,97532.34
2023-03-21T19:38:05.060Z,97533.88
2023-03-21T19:40:32.716Z,97540.53
2023-03-21T19:43:14.400Z,97532.81
2023-03-21T19:45:47.992Z,97524.81
2023-03-21T19:48:15.774Z,97533.88
2023-03-21T19:51:07.893Z,97532.81
2023-03-21T19:53:30.924Z,97525.59
2023-03-21T19:56:03.465Z,97525.59
2023-03-21T19:58:31.517Z,97530.41
2023-03-21T20:00:59.732Z,97524.41
2023-03-21T20:03:27.793Z,97522.06
2023-03-21T20:06:03.787Z,97528.22
2023-03-21T20:08:46.080Z,97529.25
2023-03-21T20:11:20.003Z,97528.13
2023-03-21T20:13:49.283Z,97529.19
2023-03-21T20:16:18.464Z,97531.78
2023-03-21T20:18:46.433Z,97531.47
2023-03-21T20:21:18.165Z,97542.97
2023-03-21T20:23:52.038Z,97535.13
2023-03-21T20:26:19.669Z,97541.75
2023-03-21T20:28:56.681Z,97535.59
2023-03-21T20:31:31.904Z,97529.63
2023-03-21T20:33:59.598Z,97533.31
2023-03-21T20:36:43.899Z,97535.66
2023-03-21T20:39:11.839Z,97535.25
2023-03-21T20:41:39.537Z,97541.34
2023-03-21T20:46:54.756Z,97535.41
2023-03-21T20:49:23.171Z,97538.56
2023-03-21T20:52:47.859Z,97538.25
2023-03-21T20:54:38.248Z,97543.25
2023-03-21T20:57:05.660Z,97531.41
2023-03-21T20:59:33.771Z,97537.34
2023-03-21T21:02:01.294Z,97539.53
2023-03-21T21:05:12.176Z,97544.88
2023-03-21T21:07:22.378Z,97543.25
2023-03-21T21:09:50.519Z,97545.34
2023-03-21T21:12:19.543Z,97536.75
2023-03-21T21:14:48.387Z,97534.91
2023-03-21T21:17:31.200Z,97542.09
2023-03-21T21:20:15.992Z,97539.44
2023-03-21T21:22:58.893Z,97538.03
2023-03-21T21:25:27.677Z,97538.63
2023-03-21T21:27:55.191Z,97539.44
2023-03-21T21:30:22.772Z,97534.56
2023-03-21T21:32:50.606Z,97543.63
2023-03-21T21:35:19.724Z,97538.88
2023-03-21T21:37:47.187Z,97541.28
2023-03-21T21:40:18.368Z,97544.22
2023-03-21T21:42:46.020Z,97547.91
2023-03-21T21:45:14.052Z,97543.16
2023-03-21T21:47:44.431Z,97538.88
2023-03-21T21:50:12.676Z,97544.69
2023-03-21T21:52:43.776Z,97539.00
2023-03-21T21:55:13.336Z,97543.53
2023-03-21T21:57:41.121Z,97548.22
2023-03-21T22:00:15.716Z,97548.38
2023-03-21T22:02:43.197Z,97550.28
2023-03-21T22:05:10.872Z,97554.22
2023-03-21T22:07:39.343Z,97554.22
2023-03-21T22:10:07.375Z,97552.13
2023-03-21T22:12:34.953Z,97550.28
2023-03-21T22:15:04.123Z,97546.81
2023-03-21T22:17:31.848Z,97551.66
2023-03-21T22:20:06.224Z,97556.16
2023-03-21T22:22:34.708Z,97556.88
2023-03-21T22:25:03.784Z,97550.81
2023-03-21T22:27:31.699Z,97556.09
2023-03-21T22:30:04.886Z,97557.09
2023-03-21T22:32:33.675Z,97564.88
2023-03-21T22:35:03.760Z,97562.22
2023-03-21T22:37:36.468Z,97566.03
2023-03-21T22:40:08.170Z,97570.69
2023-03-21T22:42:37.473Z,97566.97
2023-03-21T22:45:06.288Z,97565.84
2023-03-21T22:47:33.890Z,97562.59
2023-03-21T22:50:01.482Z,97572.09
2023-03-21T22:52:28.984Z,97570.97
2023-03-21T22:54:56.444Z,97567.94
2023-03-21T22:57:24.236Z,97564.34
2023-03-21T22:59:51.920Z,97564.50
2023-03-21T23:02:19.585Z,97567.06
2023-03-21T23:05:17.944Z,97561.34
2023-03-21T23:07:45.424Z,97565.78
2023-03-21T23:13:28.432Z,97559.19
2023-03-21T23:16:03.944Z,97556.59
2023-03-21T23:18:32.674Z,97557.06
2023-03-21T23:21:00.571Z,97548.88
2023-03-21T23:23:29.616Z,97549.00
2023-03-21T23:25:57.394Z,97545.63
2023-03-21T23:28:25.315Z,97546.34
2023-03-21T23:30:52.843Z,97545.53
2023-03-21T23:33:20.476Z,97546.81
2023-03-21T23:35:47.950Z,97544.00
2023-03-21T23:38:15.634Z,97537.53
2023-03-21T23:40:43.120Z,97535.56
2023-03-21T23:43:11.127Z,97539.94
2023-03-21T23:45:38.580Z,97534.06
2023-03-21T23:48:06.331Z,97533.81
2023-03-21T23:50:34.086Z,97535.22
2023-03-21T23:53:01.735Z,97535.09
2023-03-21T23:55:29.178Z,97537.28
2023-03-21T23:57:59.207Z,97537.06
